Home > Products > Valid Products > TAF

000
FTUS41 KCLE 221700
TAFCLE
TAF
KCLE 221731Z 2218/2324 15008KT P6SM OVC045
     FM222300 12008KT P6SM SCT045 OVC120
     FM230700 14012KT P6SM VCSH SCT025 OVC035
      TEMPO 2312/2316 4SM -SHRA BR SCT015 OVC025
     FM231600 17014G22KT P6SM VCSH SCT008 OVC015=



000
FTUS41 KCLE 221700
TAFMFD
TAF
KMFD 221731Z 2218/2318 12008KT P6SM BKN040
     FM222100 12010KT P6SM SCT040 BKN120
     FM230600 14012KT 4SM BR VCSH SCT015 OVC025
      TEMPO 2310/2314 2SM -SHRA SCT004 OVC008
     FM231400 16012G20KT 3SM -DZ BR OVC004=



000
FTUS41 KCLE 221700
TAFTOL
TAF
KTOL 221731Z 2218/2318 10008KT 6SM HZ BKN045 OVC090
     FM230600 10007KT 5SM BR VCSH SCT015 OVC025
      TEMPO 2309/2313 2SM -SHRA SCT008 OVC012
     FM231300 17006KT 3SM -DZ BR SCT003 OVC008=



000
FTUS41 KCLE 221700
TAFCAK
TAF
KCAK 221731Z 2218/2318 13006KT 6SM HZ SCT045 BKN120
     FM230200 13008KT 6SM HZ OVC045
     FM230600 14012KT 4SM BR VCSH SCT025 OVC035
      TEMPO 2311/2315 4SM -SHRA BR SCT015 OVC025
     FM231500 16010G18KT 5SM BR VCSH SCT008 OVC012=



000
FTUS41 KCLE 221700
TAFFDY
TAF
KFDY 221731Z 2218/2318 13008KT 6SM HZ BKN045
     FM230500 13012KT 5SM BR VCSH SCT015 OVC025
      TEMPO 2308/2312 2SM -SHRA SCT008 OVC012
     FM231200 17010G18KT 3SM -DZ BR SCT003 OVC008=



000
FTUS41 KCLE 221700
TAFYNG
TAF
KYNG 221731Z 2218/2318 13008KT P6SM BKN045 OVC120
     FM230700 13012KT 4SM BR VCSH SCT025 OVC035
      TEMPO 2312/2316 4SM -SHRA BR SCT015 OVC025
     FM231600 15010G18KT 5SM BR VCSH SCT008 OVC012=



000
FTUS41 KCLE 221700
TAFERI
TAF
KERI 221731Z 2218/2318 17008KT P6SM BKN045 OVC120
     FM230000 13010KT P6SM BKN045 OVC100
     FM231100 14014G26KT P6SM VCSH SCT025 OVC035
      TEMPO 2314/2318 4SM -SHRA BR SCT015 OVC025=



000
FTUS41 KCLE 221600 AAA
TAFCLE
TAF AMD
KCLE 221620Z 2216/2318 15006KT P6SM SCT120 BKN250
     FM221800 15006KT P6SM BKN045
     FM230400 13010KT 6SM BR VCSH SCT008 OVC025
      TEMPO 2310/2314 4SM -RA BKN008 OVC015
     FM231400 15012G24KT 4SM -RA BR BKN008 OVC015=



000
FTUS41 KCLE 221500 AAB
TAFMFD
TAF AMD
KMFD 221559Z 2216/2312 15008KT 6SM HZ OVC040
     FM222200 16008KT P6SM OVC025
     FM230700 15012KT 5SM BR VCSH SCT008 OVC015
      TEMPO 2309/2312 3SM -RA BR BKN008 OVC012=



000
FTUS41 KCLE 221500 AAB
TAFMFD
TAF AMD
KMFD 221559Z 2216/2312 15008KT 6SM HZ OVC040
     FM222200 16008KT P6SM OVC025
     FM230700 15012KT 5SM BR VCSH SCT008 OVC015
      TEMPO 2309/2312 3SM -RA BR BKN008 OVC012=



000
FTUS41 KCLE 221400 AAB
TAFCLE
TAF AMD
KCLE 221453Z 2215/2318 15006KT P6SM SCT120 BKN250
     FM221630 15006KT P6SM BKN045
     FM230400 13010KT 6SM BR VCSH SCT008 OVC025
      TEMPO 2310/2314 4SM -RA BKN008 OVC015
     FM231400 15012G24KT 4SM -RA BR BKN008 OVC015=



000
FTUS41 KCLE 221400 AAA
TAFTOL
TAF AMD
KTOL 221418Z 2214/2312 VRB03KT 4SM BR FEW120 BKN200
     FM221600 12006KT P6SM BKN045 OVC100
     FM230700 10006KT 5SM BR VCSH OVC025
      TEMPO 2310/2312 3SM -RA BR SCT008 OVC012=



000
FTUS41 KCLE 221400 AAA
TAFFDY
TAF AMD
KFDY 221414Z 2214/2312 12008KT 6SM HZ OVC045
     FM222000 12008KT P6SM SCT015 OVC025
     FM230600 14012G20KT 5SM BR VCSH SCT008 OVC012
      TEMPO 2310/2312 3SM -RA BR OVC008=



000
FTUS41 KCLE 221400 AAA
TAFYNG
TAF AMD
KYNG 221411Z 2214/2312 13006KT P6SM SCT045 BKN150
     FM221530 14008KT P6SM BKN040
     FM230900 14010KT 6SM BR VCSH SCT015 OVC025=



000
FTUS41 KCLE 221400 AAA
TAFMFD
TAF AMD
KMFD 221408Z 2214/2312 15008KT 5SM HZ BKN040
     FM222200 16008KT P6SM OVC025
     FM230700 15012KT 5SM BR VCSH SCT008 OVC015
      TEMPO 2309/2312 3SM -RA BR BKN008 OVC012=



000
FTUS41 KCLE 221400 AAA
TAFCAK
TAF AMD
KCAK 221405Z 2214/2312 12006KT 5SM HZ SCT045 BKN120
     FM221600 14006KT 6SM HZ BKN045
     FM230800 13012KT 5SM BR VCSH SCT015 OVC025
      TEMPO 2310/2312 3SM -RA BR SCT008 OVC015=



000
FTUS41 KCLE 221300 AAA
TAFERI
TAF AMD
KERI 221329Z 2213/2312 15008KT P6SM FEW045 BKN150
     FM221800 15010KT P6SM BKN045
     FM222200 15010KT P6SM OVC035
     FM230900 14012G20KT P6SM VCSH SCT015 OVC025=



000
FTUS41 KCLE 221300 AAA
TAFERI
TAF AMD
KERI 221329Z 2213/2312 15008KT P6SM FEW045 BKN150
     FM221800 15010KT P6SM BKN045
     FM222200 15010KT P6SM OVC035
     FM230900 14012G20KT P6SM VCSH SCT015 OVC025=



000
FTUS41 KCLE 221300 AAA
TAFCLE
TAF AMD
KCLE 221326Z 2213/2318 15006KT P6SM SCT120 BKN250
     FM221600 15006KT P6SM BKN045
     FM222200 13008KT P6SM OVC035
     FM230400 13010KT 6SM BR VCSH SCT008 OVC025
      TEMPO 2310/2314 4SM -RA BKN008 OVC015
     FM231400 15012G24KT 4SM -RA BR BKN008 OVC015=



000
FTUS41 KCLE 221300 AAA
TAFCLE
TAF AMD
KCLE 221326Z 2213/2318 15006KT P6SM SCT120 BKN250
     FM221600 15006KT P6SM BKN045
     FM222200 13008KT P6SM OVC035
     FM230400 13010KT 6SM BR VCSH SCT008 OVC025
      TEMPO 2310/2314 4SM -RA BKN008 OVC015
     FM231400 15012G24KT 4SM -RA BR BKN008 OVC015=



000
FTUS41 KCLE 221100
TAFCLE
TAF
KCLE 221130Z 2212/2318 VRB03KT P6SM BKN250
     FM221400 15006KT P6SM SCT045 BKN120
     FM221800 15006KT P6SM BKN045
     FM222200 13008KT P6SM OVC035
     FM230400 13010KT 6SM BR VCSH OVC025
     FM230800 13010KT 6SM -RA BR OVC025
     FM231100 13012KT 4SM -RA BR OVC007
     FM231500 15012G24KT 2SM -RA BR OVC007=



000
FTUS41 KCLE 221100
TAFFDY
TAF
KFDY 221130Z 2212/2312 09006KT 5SM BR BKN250
     FM221400 12005KT 6SM HZ SCT045 BKN120
     FM221600 12007KT P6SM OVC045
     FM222000 12007KT P6SM OVC015
     FM230200 12008KT 5SM BR VCSH OVC015
     FM230300 11012KT 4SM -RA BR OVC015
     FM230700 14015G25KT 2SM -RA BR OVC007=



000
FTUS41 KCLE 221100
TAFTOL
TAF
KTOL 221130Z 2212/2312 00000KT 3SM BR SKC
     FM221300 12005KT 6SM HZ SCT045 BKN120
     FM221800 12007KT P6SM OVC045
     FM222200 12007KT P6SM OVC025
     FM230300 10006KT 5SM BR VCSH OVC025
     FM230400 10007KT 4SM -RA BR OVC015
     FM230800 10008KT 4SM -RA BR OVC007=



000
FTUS41 KCLE 221100
TAFCAK
TAF
KCAK 221130Z 2212/2312 07004KT 5SM BR SKC
     FM221400 14006KT 6SM HZ SCT045 BKN120
     FM221800 14006KT P6SM BKN045
     FM222200 14008KT P6SM OVC035
     FM230200 13010KT 6SM BR VCSH OVC025
     FM230800 13011KT 4SM -RA BR OVC025
     FM231000 14011KT 4SM -RA BR OVC015
     FM231100 15012G24KT 4SM -RA BR OVC007=



000
FTUS41 KCLE 221100
TAFERI
TAF
KERI 221130Z 2212/2312 15008KT P6SM SKC
     FM221400 15009KT P6SM SCT045 BKN120
     FM221800 15011KT P6SM BKN045
     FM222200 15009KT P6SM OVC035
     FM231000 14012KT P6SM -RA OVC025
     FM231100 14012G24KT P6SM -RA OVC015=



000
FTUS41 KCLE 221100
TAFMFD
TAF
KMFD 221130Z 2212/2312 11006KT 6SM BR BKN250
     FM221400 15006KT P6SM SCT045 BKN120
      TEMPO 2214/2218 BKN045
     FM221800 16008KT P6SM BKN045
     FM222200 16008KT P6SM OVC025
     FM230200 14008KT 5SM BR VCSH OVC015
     FM230600 13012KT 4SM -RA BR OVC015
     FM230900 15015G25KT 4SM -RA BR OVC007=



000
FTUS41 KCLE 221100
TAFYNG
TAF
KYNG 221130Z 2212/2312 10008KT P6SM SKC
     FM221400 14006KT P6SM SCT045 BKN120
     FM221800 14006KT P6SM BKN040
     FM222200 14008KT P6SM OVC035
     FM230200 13010KT 6SM BR VCSH OVC025
     FM230900 12010KT 6SM -RA BR OVC025=



000
FTUS41 KCLE 220800 AAA
TAFFDY
TAF AMD
KFDY 220857Z 2209/2306 11003KT 4SM BR BKN250
      TEMPO 2209/2213 1SM BR
     FM221400 12005KT 6SM HZ SCT045 BKN120
     FM221600 12007KT P6SM OVC045
     FM222000 12007KT P6SM OVC015
     FM230200 12008KT 5SM BR VCSH OVC015=



000
FTUS41 KCLE 220800 AAA
TAFCLE
TAF AMD
KCLE 220853Z 2209/2312 00000KT P6SM BKN250
     FM221400 15006KT P6SM SCT045 BKN120
     FM221800 15006KT P6SM BKN045
     FM222200 13008KT P6SM OVC035
     FM230400 13010KT 6SM BR VCSH OVC025
     FM230800 13010KT 6SM -SHRA BR OVC025=



000
FTUS41 KCLE 220500
TAFCLE
TAF
KCLE 220529Z 2206/2312 12005KT P6SM SCT025 BKN250
     FM220800 14005KT 6SM BR BKN250
      TEMPO 2209/2213 5SM BR
     FM221400 15006KT P6SM SCT045 BKN120
     FM221800 15006KT P6SM BKN045
     FM222200 13008KT P6SM OVC035
     FM230400 13010KT 6SM BR VCSH OVC025
     FM230800 13010KT 6SM -SHRA BR OVC025=



000
FTUS41 KCLE 220500
TAFTOL
TAF
KTOL 220529Z 2206/2306 10002KT 5SM BR BKN250
      TEMPO 2206/2209 3SM BR
     FM220900 10002KT 3SM BR BKN250
      TEMPO 2209/2213 1SM BR
     FM221400 12005KT 6SM HZ SCT045 BKN120
     FM221800 12007KT P6SM OVC045
     FM222200 12007KT P6SM OVC025
     FM230300 10006KT 5SM BR VCSH OVC025=



000
FTUS41 KCLE 220500
TAFERI
TAF
KERI 220529Z 2206/2306 12005KT P6SM OVC025
      TEMPO 2206/2207 SCT025
     FM220700 14006KT P6SM SCT025 BKN250
     FM221400 15009KT P6SM SCT045 BKN120
     FM221800 15011KT P6SM BKN045
     FM222200 15009KT P6SM OVC035=



000
FTUS41 KCLE 220500
TAFFDY
TAF
KFDY 220529Z 2206/2306 09004KT P6SM BKN250
      TEMPO 2206/2208 6SM BR
     FM220800 11003KT 4SM BR BKN250
      TEMPO 2209/2213 1SM BR
     FM221400 12005KT 6SM HZ SCT045 BKN120
     FM221600 12007KT P6SM OVC045
     FM222000 12007KT P6SM OVC015
     FM230200 12008KT 5SM BR VCSH OVC015=



000
FTUS41 KCLE 220500
TAFYNG
TAF
KYNG 220529Z 2206/2306 12005KT P6SM SCT025 BKN250
      TEMPO 2206/2208 5SM BR BKN024
     FM220800 12005KT 5SM BR SCT020 BKN250
      TEMPO 2209/2213 2SM BR BKN020
     FM221400 14006KT P6SM SCT045 BKN120
     FM221800 14006KT P6SM BKN040
     FM222200 14008KT P6SM OVC035
     FM230200 13010KT 6SM BR VCSH OVC025=



000
FTUS41 KCLE 220500
TAFCAK
TAF
KCAK 220529Z 2206/2306 VRB04KT 6SM BR SCT025 BKN250
      TEMPO 2206/2208 4SM BR
     FM220800 12005KT 5SM BR SCT020 BKN250
      TEMPO 2209/2213 3SM BR BKN020
     FM221400 14006KT 6SM HZ SCT045 BKN120
     FM221800 14006KT P6SM BKN045
     FM222200 14008KT P6SM OVC035
     FM230200 13010KT 6SM BR VCSH OVC025=



000
FTUS41 KCLE 220500
TAFMFD
TAF
KMFD 220529Z 2206/2306 10005KT P6SM BKN250
     FM220800 12004KT 6SM BR BKN250
      TEMPO 2209/2213 4SM BR
     FM221400 15006KT P6SM SCT045 BKN120
      TEMPO 2214/2218 BKN045
     FM221800 16008KT P6SM BKN045
     FM222200 16008KT P6SM OVC025
     FM230200 14008KT 5SM BR VCSH OVC015=



000
FTUS41 KCLE 220400 AAA
TAFTOL
TAF AMD
KTOL 220412Z 2204/2224 10002KT 5SM BR SCT050 BKN250
      TEMPO 2205/2209 3SM BR
     FM220900 10002KT 3SM BR BKN250
      TEMPO 2209/2213 1SM BR
     FM221400 12005KT P6SM SCT045 BKN120
     FM221800 12007KT P6SM OVC045
     FM222200 12007KT P6SM OVC025=



000
FTUS41 KCLE 220300 AAA
TAFERI
TAF AMD
KERI 220331Z 2204/2224 12005KT P6SM OVC025
     FM220500 14006KT P6SM SCT025 BKN250
     FM221400 15009KT P6SM SCT045 BKN120
     FM221800 15011KT P6SM BKN045
     FM222200 15009KT P6SM OVC035=



000
FTUS41 KCLE 220300 AAA
TAFCLE
TAF AMD
KCLE 220302Z 2203/2306 12005KT P6SM SCT025 BKN250
     FM220600 14005KT 6SM BR BKN250
      TEMPO 2209/2213 5SM BR
     FM221400 15006KT P6SM SCT045 BKN120
     FM221800 15006KT P6SM BKN045
     FM222200 13008KT P6SM OVC035
     FM230400 13010KT P6SM OVC025=



000
FTUS41 KCLE 220100 AAA
TAFYNG
TAF AMD
KYNG 220139Z 2202/2224 12005KT P6SM OVC025
     FM220300 12005KT P6SM SCT024 BKN250
      TEMPO 2203/2206 4SM BR BKN024
     FM220600 12005KT 5SM BR SCT020 BKN250
      TEMPO 2209/2213 2SM BR BKN020
     FM221400 14006KT P6SM SCT040 BKN120
     FM221800 14006KT P6SM BKN035
     FM222200 14008KT P6SM OVC025=



000
FTUS41 KCLE 220100 AAA
TAFYNG
TAF AMD
KYNG 220139Z 2202/2224 12005KT P6SM OVC025
     FM220300 12005KT P6SM SCT024 BKN250
      TEMPO 2203/2206 4SM BR BKN024
     FM220600 12005KT 5SM BR SCT020 BKN250
      TEMPO 2209/2213 2SM BR BKN020
     FM221400 14006KT P6SM SCT040 BKN120
     FM221800 14006KT P6SM BKN035
     FM222200 14008KT P6SM OVC025=



000
FTUS41 KCLE 220000 AAA
TAFCAK
TAF AMD
KCAK 220047Z 2201/2224 VRB03KT P6SM SCT022 BKN250
     FM220400 VRB04KT 6SM BR SCT020 BKN250
      TEMPO 2204/2206 4SM BR
     FM220600 12005KT 5SM BR SCT020 BKN250
      TEMPO 2209/2213 3SM BR BKN020
     FM221400 14006KT P6SM SCT040 BKN120
     FM221800 14006KT P6SM BKN035
     FM222200 14008KT P6SM OVC025=



000
FTUS41 KCLE 220000 AAA
TAFCAK
TAF AMD
KCAK 220047Z 2201/2224 VRB03KT P6SM SCT022 BKN250
     FM220400 VRB04KT 6SM BR SCT020 BKN250
      TEMPO 2204/2206 4SM BR
     FM220600 12005KT 5SM BR SCT020 BKN250
      TEMPO 2209/2213 3SM BR BKN020
     FM221400 14006KT P6SM SCT040 BKN120
     FM221800 14006KT P6SM BKN035
     FM222200 14008KT P6SM OVC025=



000
FTUS41 KCLE 212300
TAFMFD
TAF
KMFD 212324Z 2200/2224 10005KT P6SM BKN250
     FM220500 12004KT 6SM BR BKN250
      TEMPO 2209/2213 4SM BR
     FM221400 15006KT P6SM SCT045 BKN120
      TEMPO 2214/2218 BKN045
     FM221800 16008KT P6SM BKN045
     FM222200 16008KT P6SM OVC025=



000
FTUS41 KCLE 212300
TAFCLE
TAF
KCLE 212324Z 2200/2306 15005KT P6SM OVC022
     FM220100 15005KT 6SM HZ SCT020 BKN250
      TEMPO 2201/2202 BKN020
     FM220400 14005KT 5SM BR BKN250
      TEMPO 2209/2213 3SM BR
     FM221400 15006KT P6SM SCT045 BKN120
     FM221800 15006KT P6SM BKN045
     FM222200 13008KT P6SM OVC035
     FM230400 13010KT P6SM OVC025=



000
FTUS41 KCLE 212300
TAFCAK
TAF
KCAK 212324Z 2200/2224 12005KT P6SM OVC022
     FM220400 12005KT 6SM BR SCT020 BKN250
      TEMPO 2204/2206 4SM BR
     FM220600 12005KT 5SM BR SCT020 BKN250
      TEMPO 2209/2213 3SM BR BKN020
     FM221400 14006KT P6SM SCT040 BKN120
     FM221800 14006KT P6SM BKN035
     FM222200 14008KT P6SM OVC025=



000
FTUS41 KCLE 212300
TAFFDY
TAF
KFDY 212324Z 2200/2224 09004KT P6SM BKN250
     FM220300 10003KT 6SM HZ BKN250
      TEMPO 2203/2206 4SM BR
     FM220600 11003KT 4SM BR BKN250
      TEMPO 2209/2213 1SM BR
     FM221400 12005KT P6SM SCT045 BKN120
     FM221600 12007KT P6SM OVC045
     FM222000 12007KT P6SM OVC015=



000
FTUS41 KCLE 212300
TAFTOL
TAF
KTOL 212324Z 2200/2224 10002KT P6SM SCT050 BKN250
      TEMPO 2205/2209 4SM BR
     FM220900 10002KT 4SM BR BKN250
      TEMPO 2209/2213 2SM BR
     FM221400 12005KT P6SM SCT045 BKN120
     FM221800 12007KT P6SM OVC045
     FM222200 12007KT P6SM OVC025=



000
FTUS41 KCLE 212300
TAFYNG
TAF
KYNG 212324Z 2200/2224 12005KT P6SM OVC025
      TEMPO 2203/2206 4SM BR
     FM220600 12005KT 5SM BR SCT020 BKN250
      TEMPO 2206/2209 3SM BR
     FM220900 12005KT 4SM BR SCT020 BKN250
      TEMPO 2209/2213 2SM BR BKN020
     FM221400 14006KT P6SM SCT040 BKN120
     FM221800 14006KT P6SM BKN035
     FM222200 14008KT P6SM OVC025=



000
FTUS41 KCLE 212300
TAFERI
TAF
KERI 212324Z 2200/2224 17005KT P6SM OVC025
     FM220800 14006KT P6SM SCT025 BKN250
     FM221400 15009KT P6SM SCT045 BKN120
     FM221800 15011KT P6SM BKN045
     FM222200 15009KT P6SM OVC035=



000
FTUS41 KCLE 212200 AAA
TAFTOL
TAF AMD
KTOL 212201Z 2122/2218 15005KT P6SM SCT015 OVC025
     FM220400 11003KT 5SM BR BKN250
      TEMPO 2210/2214 2SM BR
     FM221500 12005KT P6SM SCT025 BKN150=



000
FTUS41 KCLE 212000 AAA
TAFCLE
TAF AMD
KCLE 212047Z 2121/2224 15004KT P6SM BKN025 OVC035
     FM220300 12006KT P6SM SCT035 OVC250
     FM221500 15008KT P6SM FEW030 BKN250=



000
FTUS41 KCLE 212000 AAA
TAFFDY
TAF AMD
KFDY 212002Z 2120/2218 14005KT P6SM SCT025 OVC250
     FM220600 11006KT 5SM BR BKN250
      TEMPO 2210/2214 2SM BR
     FM221500 14008KT P6SM SCT025 BKN150=



000
FTUS41 KCLE 212000 AAA
TAFFDY
TAF AMD
KFDY 212002Z 2120/2218 14005KT P6SM SCT025 OVC250
     FM220600 11006KT 5SM BR BKN250
      TEMPO 2210/2214 2SM BR
     FM221500 14008KT P6SM SCT025 BKN150=



000
FTUS41 KCLE 211700
TAFFDY
TAF
KFDY 211731Z 2118/2218 17004KT P6SM BKN015 OVC025
     FM211900 16005KT P6SM BKN025
     FM212100 14005KT P6SM SCT025 OVC250
     FM220600 11006KT 5SM BR BKN250
      TEMPO 2210/2214 2SM BR
     FM221500 14008KT P6SM SCT025 BKN150=



000
FTUS41 KCLE 211700
TAFERI
TAF
KERI 211731Z 2118/2218 19004KT P6SM OVC025
     FM212200 12004KT P6SM OVC028
     FM220400 14008KT P6SM FEW035 OVC250=



000
FTUS41 KCLE 211700
TAFMFD
TAF
KMFD 211731Z 2118/2218 16005KT P6SM SCT025 BKN250
     FM212300 12006KT P6SM BKN250
     FM221500 15008KT P6SM SCT025 BKN200=



000
FTUS41 KCLE 211700
TAFCAK
TAF
KCAK 211731Z 2118/2218 18004KT P6SM OVC025
     FM212100 15004KT P6SM BKN025 OVC035
     FM220200 12005KT P6SM SCT035 OVC250
      TEMPO 2210/2213 4SM BR
     FM221500 15008KT P6SM FEW030 BKN250=



000
FTUS41 KCLE 211700
TAFCLE
TAF
KCLE 211731Z 2118/2224 18006KT P6SM OVC025
     FM212200 15004KT P6SM BKN025 OVC035
     FM220300 12006KT P6SM SCT035 OVC250
     FM221500 15008KT P6SM FEW030 BKN250=



000
FTUS41 KCLE 211700
TAFTOL
TAF
KTOL 211731Z 2118/2218 17005KT P6SM SCT015 OVC025
     FM212200 14004KT P6SM SCT025 OVC050
     FM220500 11003KT 5SM BR BKN250
      TEMPO 2210/2214 2SM BR
     FM221500 12005KT P6SM SCT025 BKN150=



000
FTUS41 KCLE 211700
TAFYNG
TAF
KYNG 211731Z 2118/2218 VRB03KT P6SM OVC025
     FM212300 11004KT P6SM BKN025 OVC035
     FM220400 11005KT P6SM SCT035 OVC250
     FM221500 13008KT P6SM SCT030 BKN250=



000
FTUS41 KCLE 211600 AAA
TAFMFD
TAF AMD
KMFD 211654Z 2117/2212 VRB03KT P6SM SCT025
     FM211800 18004KT P6SM SCT025 BKN060=



000
FTUS41 KCLE 211500 AAD
TAFFDY
TAF AMD
KFDY 211555Z 2116/2212 18003KT P6SM SCT020 OVC060
     FM212000 20005KT P6SM SCT030 BKN060=



000
FTUS41 KCLE 211500 AAC
TAFFDY
TAF AMD
KFDY 211529Z 2115/2212 18003KT 5SM BR BKN015
      TEMPO 2115/2117 3SM BR
     FM211700 18003KT P6SM BKN020 OVC060
     FM212000 20005KT P6SM SCT030 BKN060=



000
FTUS41 KCLE 211500 AAC
TAFTOL
TAF AMD
KTOL 211529Z 2115/2212 18003KT 5SM BR OVC015
      TEMPO 2115/2117 3SM BR
     FM211700 18003KT P6SM BKN030 OVC060
     FM212000 20005KT P6SM SCT030 BKN060=



000
FTUS41 KCLE 211400 AAA
TAFCLE
TAF AMD
KCLE 211454Z 2115/2218 VRB03KT P6SM OVC025
      TEMPO 2121/2201 SCT025
     FM220100 14004KT P6SM SCT030 BKN060=



000
FTUS41 KCLE 211400 AAA
TAFCAK
TAF AMD
KCAK 211403Z 2114/2212 VRB03KT P6SM OVC025
      TEMPO 2114/2116 4SM BR
     FM212000 14004KT P6SM SCT025 BKN060=



000
FTUS41 KCLE 211400 AAA
TAFCAK
TAF AMD
KCAK 211403Z 2114/2212 VRB03KT P6SM OVC025
      TEMPO 2114/2116 4SM BR
     FM212000 14004KT P6SM SCT025 BKN060=



000
FTUS41 KCLE 211400 AAB
TAFTOL
TAF AMD
KTOL 211402Z 2114/2212 18003KT 5SM BR BKN018
      TEMPO 2114/2115 2SM BR
     FM211500 18003KT P6SM BKN030 OVC060
     FM212000 20005KT P6SM SCT030 BKN060=



000
FTUS41 KCLE 211400 AAB
TAFTOL
TAF AMD
KTOL 211402Z 2114/2212 18003KT 5SM BR BKN018
      TEMPO 2114/2115 2SM BR
     FM211500 18003KT P6SM BKN030 OVC060
     FM212000 20005KT P6SM SCT030 BKN060=



000
FTUS41 KCLE 211300 AAB
TAFFDY
TAF AMD
KFDY 211308Z 2113/2212 18003KT 3SM BR BKN018
      TEMPO 2113/2115 1 1/2SM BR SCT018
     FM211500 18003KT P6SM BKN020 OVC060
     FM212000 20005KT P6SM SCT030 BKN060=



000
FTUS41 KCLE 211300 AAB
TAFFDY
TAF AMD
KFDY 211308Z 2113/2212 18003KT 3SM BR BKN018
      TEMPO 2113/2115 1 1/2SM BR SCT018
     FM211500 18003KT P6SM BKN020 OVC060
     FM212000 20005KT P6SM SCT030 BKN060=



000
FTUS41 KCLE 211200 AAA
TAFTOL
TAF AMD
KTOL 211218Z 2112/2212 18003KT 5SM BR BKN018
     FM211500 18003KT P6SM BKN030 OVC060
     FM212000 20005KT P6SM SCT030 BKN060=



000
FTUS41 KCLE 211200 AAA
TAFTOL
TAF AMD
KTOL 211218Z 2112/2212 18003KT 5SM BR BKN018
     FM211500 18003KT P6SM BKN030 OVC060
     FM212000 20005KT P6SM SCT030 BKN060=



000
FTUS41 KCLE 211200 AAA
TAFFDY
TAF AMD
KFDY 211218Z 2112/2212 18003KT 3SM BR BKN018
     FM211500 18003KT P6SM BKN020 OVC060
     FM212000 20005KT P6SM SCT030 BKN060=



000
FTUS41 KCLE 211200 AAA
TAFFDY
TAF AMD
KFDY 211218Z 2112/2212 18003KT 3SM BR BKN018
     FM211500 18003KT P6SM BKN020 OVC060
     FM212000 20005KT P6SM SCT030 BKN060=



000
FTUS41 KCLE 211100
TAFMFD
TAF
KMFD 211137Z 2112/2212 VRB03KT P6SM OVC025
      TEMPO 2115/2118 5SM BR SCT025
     FM211800 18004KT P6SM SCT025 BKN060=



000
FTUS41 KCLE 211100
TAFCLE
TAF
KCLE 211137Z 2112/2218 22003KT P6SM OVC025
      TEMPO 2116/2119 SCT025
     FM212000 14004KT P6SM SCT030 BKN060=



000
FTUS41 KCLE 211100
TAFTOL
TAF
KTOL 211137Z 2112/2212 18003KT 5SM BR SCT030
     FM211400 18003KT P6SM BKN030 OVC060
     FM212000 20005KT P6SM SCT030 BKN060=



000
FTUS41 KCLE 211100
TAFYNG
TAF
KYNG 211137Z 2112/2212 VRB03KT P6SM OVC025
     FM212100 13004KT P6SM SCT025 BKN060=



000
FTUS41 KCLE 211100
TAFERI
TAF
KERI 211137Z 2112/2212 17006KT P6SM OVC025
     FM212200 13004KT P6SM SCT025 BKN060=



000
FTUS41 KCLE 211100
TAFCAK
TAF
KCAK 211137Z 2112/2212 VRB03KT P6SM OVC025
     FM212000 14004KT P6SM SCT025 BKN060=



000
FTUS41 KCLE 211100
TAFFDY
TAF
KFDY 211137Z 2112/2212 18003KT 3SM BR SCT018
     FM211400 18003KT P6SM BKN020 OVC060
     FM212000 20005KT P6SM SCT030 BKN060=



000
FTUS41 KCLE 210800 AAA
TAFCLE
TAF AMD
KCLE 210855Z 2109/2212 22003KT P6SM OVC030
      TEMPO 2109/2112 OVC035
     FM212000 14004KT P6SM SCT030 BKN150=



000
FTUS41 KCLE 210500
TAFFDY
TAF
KFDY 210521Z 2106/2206 18003KT P6SM OVC030
      TEMPO 2106/2110 3SM BR SCT030
     FM212000 20005KT P6SM SCT030 BKN120=



000
FTUS41 KCLE 210500
TAFYNG
TAF
KYNG 210521Z 2106/2206 VRB03KT P6SM OVC025
     FM212300 14004KT P6SM SCT025 BKN120=



000
FTUS41 KCLE 210500
TAFCLE
TAF
KCLE 210521Z 2106/2212 25003KT P6SM OVC025
      TEMPO 2108/2112 4SM BR SCT025
     FM212200 14004KT P6SM SCT025 BKN120=



000
FTUS41 KCLE 210500
TAFCAK
TAF
KCAK 210521Z 2106/2206 VRB03KT P6SM OVC028
     FM212200 14004KT P6SM SCT025 BKN120=



000
FTUS41 KCLE 210500
TAFTOL
TAF
KTOL 210521Z 2106/2206 18003KT P6SM OVC030
      TEMPO 2107/2111 2SM BR SCT030
     FM212000 20005KT P6SM SCT030 BKN120=



000
FTUS41 KCLE 210500
TAFERI
TAF
KERI 210521Z 2106/2206 17006KT P6SM OVC020
     FM220000 13004KT P6SM SCT020 BKN120=



000
FTUS41 KCLE 210500
TAFMFD
TAF
KMFD 210521Z 2106/2206 VRB03KT P6SM OVC020
      TEMPO 2108/2112 3SM BR SCT018
     FM212100 18004KT P6SM SCT025 BKN120=



000
FTUS41 KCLE 210400 AAB
TAFFDY
TAF AMD
KFDY 210406Z 2104/2124 VRB03KT 4SM BR SCT045
      TEMPO 2110/2114 1SM BR
     FM211600 18004KT P6SM BKN025
     FM212100 18005KT P6SM SCT025 BKN250=



000
FTUS41 KCLE 210400 AAB
TAFFDY
TAF AMD
KFDY 210406Z 2104/2124 VRB03KT 4SM BR SCT045
      TEMPO 2110/2114 1SM BR
     FM211600 18004KT P6SM BKN025
     FM212100 18005KT P6SM SCT025 BKN250=



000
FTUS41 KCLE 210200 AAA
TAFERI
TAF AMD
KERI 210220Z 2102/2124 16004KT P6SM OVC020
     FM210800 VRB03KT P6SM OVC015
     FM211600 18003KT P6SM BKN025
     FM212200 15004KT P6SM SCT025 BKN250=



000
FTUS41 KCLE 210200 AAA
TAFCLE
TAF AMD
KCLE 210219Z 2102/2206 25003KT P6SM OVC025
     FM210800 VRB03KT P6SM OVC015
     FM211600 20003KT P6SM BKN025
     FM212200 14004KT P6SM SCT025 BKN250
     FM220200 14005KT P6SM BKN250=



000
FTUS41 KCLE 210200 AAA
TAFFDY
TAF AMD
KFDY 210218Z 2102/2124 VRB03KT P6SM OVC028
      TEMPO 2102/2106 SCT028 OVC035
     FM210600 VRB03KT P6SM OVC015
      TEMPO 2110/2114 6SM BR
     FM211600 18004KT P6SM BKN025
     FM212100 18005KT P6SM SCT025 BKN250=



000
FTUS41 KCLE 210200 AAA
TAFTOL
TAF AMD
KTOL 210218Z 2102/2124 VRB03KT P6SM SHSN OVC025
      TEMPO 2102/2106 SCT025 OVC045
     FM210600 VRB03KT P6SM OVC015
      TEMPO 2110/2114 6SM BR
     FM211600 18004KT P6SM BKN025=



000
FTUS41 KCLE 210200 AAA
TAFMFD
TAF AMD
KMFD 210218Z 2102/2124 VRB03KT P6SM OVC015
     FM210400 VRB03KT P6SM OVC012
      TEMPO 2110/2114 5SM BR
     FM211400 20004KT P6SM OVC020
     FM211800 18004KT P6SM BKN025
     FM212100 18005KT P6SM SCT025 BKN250=



000
FTUS41 KCLE 202300
TAFTOL
TAF
KTOL 202320Z 2100/2124 VRB03KT P6SM -SHSN OVC025
      TEMPO 2100/2104 5SM -SHSN SCT025 OVC045
     FM210600 VRB03KT P6SM OVC015
      TEMPO 2110/2114 6SM BR
     FM211600 18004KT P6SM BKN025=



000
FTUS41 KCLE 202300
TAFERI
TAF
KERI 202320Z 2100/2124 VRB03KT P6SM OVC025
     FM210200 VRB03KT P6SM -SHSN OVC020
      TEMPO 2102/2106 5SM -SHSN OVC015
     FM210800 VRB03KT P6SM OVC020
     FM211600 18003KT P6SM BKN025
     FM212200 15004KT P6SM SCT025 BKN250=



000
FTUS41 KCLE 202300
TAFMFD
TAF
KMFD 202320Z 2100/2124 VRB03KT P6SM -SHSN OVC020
      TEMPO 2100/2104 5SM -SN BR OVC012
     FM210400 VRB03KT P6SM -SHSN OVC015
      TEMPO 2110/2114 5SM BR
     FM211400 20004KT P6SM OVC020
     FM211800 18004KT P6SM BKN025
     FM212100 18005KT P6SM SCT025 BKN250=



000
FTUS41 KCLE 202300
TAFCAK
TAF
KCAK 202320Z 2100/2124 VRB03KT P6SM OVC028
     FM210200 VRB03KT P6SM -SHSN OVC025
      TEMPO 2102/2106 5SM -SHSN OVC020
     FM210800 VRB03KT P6SM OVC015
     FM211600 18003KT P6SM BKN025
     FM212100 14004KT P6SM SCT025 BKN250=



000
FTUS41 KCLE 202300
TAFFDY
TAF
KFDY 202320Z 2100/2124 VRB03KT P6SM -SHSN OVC028
      TEMPO 2100/2102 4SM -SHSN BR SCT028 OVC035
     FM210600 VRB03KT P6SM OVC015
      TEMPO 2110/2114 6SM BR
     FM211600 18004KT P6SM BKN025
     FM212100 18005KT P6SM SCT025 BKN250=



000
FTUS41 KCLE 202300
TAFCLE
TAF
KCLE 202320Z 2100/2206 25003KT P6SM OVC028
     FM210100 25003KT P6SM -SHSN OVC025
      TEMPO 2101/2105 5SM -SHSN OVC020
     FM210800 VRB03KT P6SM OVC015
     FM211600 20003KT P6SM BKN025
     FM212200 14004KT P6SM SCT025 BKN250
     FM220200 14005KT P6SM BKN250=



000
FTUS41 KCLE 202300
TAFYNG
TAF
KYNG 202320Z 2100/2124 VRB03KT P6SM OVC025
     FM210200 VRB03KT P6SM -SHSN OVC020
      TEMPO 2102/2106 5SM -SHSN OVC015
     FM210800 VRB03KT P6SM OVC012
     FM211600 18003KT P6SM BKN025
     FM212100 15004KT P6SM SCT025 BKN250=



000
FTUS41 KCLE 202000 AAB
TAFTOL
TAF AMD
KTOL 202046Z 2021/2118 VRB03KT P6SM OVC025
      TEMPO 2021/2101 SCT025 OVC035=



000
FTUS41 KCLE 202000 AAA
TAFCLE
TAF AMD
KCLE 202045Z 2021/2124 VRB03KT P6SM OVC027
      TEMPO 2022/2102 OVC035=



000
FTUS41 KCLE 202000 AAA
TAFTOL
TAF AMD
KTOL 202038Z 2021/2118 VRB03KT P6SM OVC025=



000
FTUS41 KCLE 202000 AAA
TAFFDY
TAF AMD
KFDY 202037Z 2021/2118 VRB03KT P6SM OVC025
      TEMPO 2021/2101 SCT025 OVC035=



000
FTUS41 KCLE 201700
TAFTOL
TAF
KTOL 201729Z 2018/2118 VRB03KT P6SM OVC027
     FM202200 VRB03KT P6SM OVC035=



000
FTUS41 KCLE 201700
TAFMFD
TAF
KMFD 201729Z 2018/2118 VRB03KT P6SM SCT015 OVC025
      TEMPO 2018/2020 3SM -SN BR OVC015=



000
FTUS41 KCLE 201700
TAFCLE
TAF
KCLE 201729Z 2018/2124 VRB03KT P6SM OVC027
      TEMPO 2022/2102 OVC035=



000
FTUS41 KCLE 201700
TAFERI
TAF
KERI 201729Z 2018/2118 VRB03KT P6SM OVC022=



000
FTUS41 KCLE 201700
TAFFDY
TAF
KFDY 201729Z 2018/2118 VRB03KT P6SM OVC025
     FM202100 VRB03KT P6SM OVC035=



000
FTUS41 KCLE 201700
TAFCAK
TAF
KCAK 201729Z 2018/2118 VRB03KT P6SM OVC024=



000
FTUS41 KCLE 201700
TAFYNG
TAF
KYNG 201729Z 2018/2118 VRB03KT P6SM OVC024=



000
FTUS41 KCLE 201600 AAA
TAFMFD
TAF AMD
KMFD 201659Z 2017/2112 18003KT P6SM SCT015 OVC025
      TEMPO 2017/2018 1SM -SN BR OVC015=



000
FTUS41 KCLE 201400 AAA
TAFCLE
TAF AMD
KCLE 201454Z 2015/2118 20004KT P6SM OVC025=



000
FTUS41 KCLE 201100
TAFMFD
TAF
KMFD 201130Z 2012/2112 18003KT P6SM OVC018
     FM201600 VRB03KT P6SM SCT012 OVC020=



000
FTUS41 KCLE 201100
TAFERI
TAF
KERI 201130Z 2012/2112 27003KT P6SM OVC025
     FM201900 01003KT P6SM OVC030=



000
FTUS41 KCLE 201100
TAFFDY
TAF
KFDY 201130Z 2012/2112 VRB03KT P6SM OVC020=



000
FTUS41 KCLE 201100
TAFCLE
TAF
KCLE 201130Z 2012/2118 20004KT P6SM OVC025=



000
FTUS41 KCLE 201100
TAFYNG
TAF
KYNG 201130Z 2012/2112 VRB03KT P6SM OVC020=



000
FTUS41 KCLE 201100
TAFCAK
TAF
KCAK 201130Z 2012/2112 02003KT P6SM OVC020=



000
FTUS41 KCLE 201100
TAFTOL
TAF
KTOL 201130Z 2012/2112 20003KT P6SM OVC025=



000
FTUS41 KCLE 200800 AAA
TAFCLE
TAF AMD
KCLE 200857Z 2009/2112 20004KT P6SM OVC025=



000
FTUS41 KCLE 200500
TAFFDY
TAF
KFDY 200520Z 2006/2106 VRB03KT P6SM SCT015 OVC025=



000
FTUS41 KCLE 200500
TAFCAK
TAF
KCAK 200520Z 2006/2106 03003KT P6SM SCT015 OVC020
      TEMPO 2006/2010 BKN015 OVC020=



000
FTUS41 KCLE 200500
TAFMFD
TAF
KMFD 200520Z 2006/2106 VRB03KT P6SM OVC015
     FM201600 VRB03KT P6SM SCT012 OVC020=



000
FTUS41 KCLE 200500
TAFTOL
TAF
KTOL 200520Z 2006/2106 VRB03KT P6SM SCT015 OVC025
      TEMPO 2006/2010 SCT025 BKN035=



000
FTUS41 KCLE 200500
TAFERI
TAF
KERI 200520Z 2006/2106 36005KT P6SM SCT015 OVC025=



000
FTUS41 KCLE 200500
TAFCLE
TAF
KCLE 200520Z 2006/2112 VRB03KT P6SM SCT015 OVC025=



000
FTUS41 KCLE 200500
TAFYNG
TAF
KYNG 200520Z 2006/2106 36003KT P6SM SCT015 OVC020
      TEMPO 2008/2012 BKN015 OVC020=



000
FTUS41 KCLE 200200 AAA
TAFCAK
TAF AMD
KCAK 200255Z 2003/2024 VRB03KT P6SM BKN015 OVC020
     FM201800 VRB03KT P6SM SCT015 OVC025=



000
FTUS41 KCLE 200200 AAA
TAFCLE
TAF AMD
KCLE 200254Z 2003/2106 34005KT P6SM OVC025
     FM200600 VRB03KT P6SM BKN015 OVC020
     FM201600 VRB03KT P6SM SCT015 OVC025=



000
FTUS41 KCLE 200100 AAA
TAFFDY
TAF AMD
KFDY 200125Z 2001/2024 VRB03KT P6SM SCT015 OVC025
      TEMPO 2002/2004 SCT025 BKN200=



000
FTUS41 KCLE 200100 AAA
TAFFDY
TAF AMD
KFDY 200125Z 2001/2024 VRB03KT P6SM SCT015 OVC025
      TEMPO 2002/2004 SCT025 BKN200=



000
FTUS41 KCLE 192300
TAFYNG
TAF
KYNG 192323Z 2000/2024 VRB03KT P6SM OVC025
     FM200600 VRB03KT P6SM BKN015 OVC020
     FM201800 VRB03KT P6SM SCT015 OVC025=



000
FTUS41 KCLE 192300
TAFERI
TAF
KERI 192323Z 2000/2024 30006KT P6SM BKN025
      TEMPO 2000/2001 SCT025=



000
FTUS41 KCLE 192300
TAFCAK
TAF
KCAK 192323Z 2000/2024 VRB03KT P6SM OVC025
     FM200400 VRB03KT P6SM BKN015 OVC020
     FM201800 VRB03KT P6SM SCT015 OVC025=



000
FTUS41 KCLE 192300
TAFMFD
TAF
KMFD 192323Z 2000/2024 VRB03KT P6SM OVC015
      TEMPO 2006/2009 3SM BR OVC009
     FM200900 VRB03KT 3SM BR BKN009 OVC012
     FM201400 VRB03KT 5SM BR SCT009 OVC012
     FM201800 VRB03KT P6SM SCT012 OVC020=



000
FTUS41 KCLE 192300
TAFTOL
TAF
KTOL 192323Z 2000/2024 VRB03KT P6SM SCT015 OVC025=



000
FTUS41 KCLE 192300
TAFCLE
TAF
KCLE 192323Z 2000/2106 34005KT P6SM OVC025
     FM200600 VRB03KT P6SM BKN015 OVC020
     FM201600 VRB03KT P6SM SCT015 OVC025=



000
FTUS41 KCLE 192300
TAFFDY
TAF
KFDY 192323Z 2000/2024 VRB03KT P6SM SCT015 OVC025=



000
FTUS41 KCLE 192100 AAA
TAFCAK
TAF AMD
KCAK 192109Z 1921/2018 31007KT P6SM OVC023
      TEMPO 1921/1924 BKN015 OVC023
     FM200000 VRB03KT P6SM OVC025=



000
FTUS41 KCLE 192100 AAA
TAFTOL
TAF AMD
KTOL 192108Z 1921/2018 VRB03KT P6SM BKN015 OVC025
      TEMPO 1921/1924 SCT015 OVC025
     FM200000 VRB03KT P6SM BKN030=



000
FTUS41 KCLE 192000 AAA
TAFCLE
TAF AMD
KCLE 192034Z 1921/2024 34005KT P6SM OVC025
     FM201200 VRB03KT P6SM BKN030=



    US Dept of Commerce
    National Oceanic and Atmospheric Administration
    National Weather Service
    1325 East West Highway
    Silver Spring, MD 20910
    Page Author: NWS Internet Services Team
Disclaimer
Information Quality
Credits
Glossary
Privacy Policy
Freedom of Information Act (FOIA)
About Us
Career Opportunities